sensor_id;sensor_type;location;lat;lon;timestamp;P1;durP1;ratioP1;P2;durP2;ratioP2
78989;SDS011;68390;52.130;21.218;2023-05-07T00:01:58;9.48;;;4.03;;
78989;SDS011;68390;52.130;21.218;2023-05-07T00:04:23;5.75;;;3.67;;
78989;SDS011;68390;52.130;21.218;2023-05-07T00:06:49;7.15;;;4.03;;
78989;SDS011;68390;52.130;21.218;2023-05-07T00:09:14;5.60;;;3.72;;
78989;SDS011;68390;52.130;21.218;2023-05-07T00:11:41;6.75;;;3.88;;
78989;SDS011;68390;52.130;21.218;2023-05-07T00:14:07;6.90;;;4.70;;
78989;SDS011;68390;52.130;21.218;2023-05-07T00:16:32;6.10;;;4.18;;
78989;SDS011;68390;52.130;21.218;2023-05-07T00:18:57;11.20;;;4.33;;
78989;SDS011;68390;52.130;21.218;2023-05-07T00:21:23;6.53;;;3.95;;
78989;SDS011;68390;52.130;21.218;2023-05-07T00:23:51;7.35;;;3.83;;
78989;SDS011;68390;52.130;21.218;2023-05-07T00:26:17;6.03;;;4.07;;
78989;SDS011;68390;52.130;21.218;2023-05-07T00:28:43;8.07;;;3.77;;
78989;SDS011;68390;52.130;21.218;2023-05-07T00:31:08;6.05;;;3.65;;
78989;SDS011;68390;52.130;21.218;2023-05-07T00:33:34;8.48;;;4.35;;
78989;SDS011;68390;52.130;21.218;2023-05-07T00:35:59;9.27;;;4.40;;
78989;SDS011;68390;52.130;21.218;2023-05-07T00:38:26;6.72;;;3.92;;
78989;SDS011;68390;52.130;21.218;2023-05-07T00:40:52;5.90;;;3.72;;
78989;SDS011;68390;52.130;21.218;2023-05-07T00:43:17;6.15;;;3.58;;
78989;SDS011;68390;52.130;21.218;2023-05-07T00:45:43;5.80;;;3.88;;
78989;SDS011;68390;52.130;21.218;2023-05-07T00:48:08;6.00;;;3.92;;
78989;SDS011;68390;52.130;21.218;2023-05-07T00:50:33;5.93;;;3.90;;
78989;SDS011;68390;52.130;21.218;2023-05-07T00:52:59;6.75;;;4.07;;
78989;SDS011;68390;52.130;21.218;2023-05-07T00:55:45;6.60;;;3.78;;
78989;SDS011;68390;52.130;21.218;2023-05-07T00:58:31;7.47;;;3.97;;
78989;SDS011;68390;52.130;21.218;2023-05-07T01:00:57;7.93;;;4.85;;
78989;SDS011;68390;52.130;21.218;2023-05-07T01:03:23;7.15;;;4.55;;
78989;SDS011;68390;52.130;21.218;2023-05-07T01:05:48;7.22;;;4.07;;
78989;SDS011;68390;52.130;21.218;2023-05-07T01:08:16;7.63;;;3.83;;
78989;SDS011;68390;52.130;21.218;2023-05-07T01:10:43;7.45;;;3.58;;
78989;SDS011;68390;52.130;21.218;2023-05-07T01:13:10;6.45;;;4.07;;
78989;SDS011;68390;52.130;21.218;2023-05-07T01:15:37;6.75;;;4.05;;
78989;SDS011;68390;52.130;21.218;2023-05-07T01:18:03;5.60;;;3.60;;
78989;SDS011;68390;52.130;21.218;2023-05-07T01:20:28;6.68;;;3.85;;
78989;SDS011;68390;52.130;21.218;2023-05-07T01:22:54;7.70;;;4.28;;
78989;SDS011;68390;52.130;21.218;2023-05-07T01:25:21;6.38;;;4.10;;
78989;SDS011;68390;52.130;21.218;2023-05-07T01:27:47;6.53;;;4.28;;
78989;SDS011;68390;52.130;21.218;2023-05-07T01:30:12;7.38;;;4.22;;
78989;SDS011;68390;52.130;21.218;2023-05-07T01:35:15;5.18;;;3.58;;
78989;SDS011;68390;52.130;21.218;2023-05-07T01:37:45;5.88;;;3.50;;
78989;SDS011;68390;52.130;21.218;2023-05-07T01:40:12;5.65;;;3.88;;
78989;SDS011;68390;52.130;21.218;2023-05-07T01:42:38;5.97;;;3.65;;
78989;SDS011;68390;52.130;21.218;2023-05-07T01:45:04;6.57;;;3.63;;
78989;SDS011;68390;52.130;21.218;2023-05-07T01:47:30;6.95;;;3.75;;
78989;SDS011;68390;52.130;21.218;2023-05-07T01:49:56;6.40;;;3.45;;
78989;SDS011;68390;52.130;21.218;2023-05-07T01:52:23;5.07;;;3.60;;
78989;SDS011;68390;52.130;21.218;2023-05-07T01:54:49;6.35;;;3.92;;
78989;SDS011;68390;52.130;21.218;2023-05-07T01:57:15;5.45;;;3.58;;
78989;SDS011;68390;52.130;21.218;2023-05-07T01:59:40;8.93;;;3.92;;
78989;SDS011;68390;52.130;21.218;2023-05-07T02:02:05;5.47;;;3.70;;
78989;SDS011;68390;52.130;21.218;2023-05-07T02:04:31;6.70;;;4.03;;
78989;SDS011;68390;52.130;21.218;2023-05-07T02:06:56;6.53;;;3.60;;
78989;SDS011;68390;52.130;21.218;2023-05-07T02:09:22;5.95;;;3.83;;
78989;SDS011;68390;52.130;21.218;2023-05-07T02:11:48;5.20;;;3.47;;
78989;SDS011;68390;52.130;21.218;2023-05-07T02:14:14;5.50;;;3.88;;
78989;SDS011;68390;52.130;21.218;2023-05-07T02:16:40;8.75;;;3.63;;
78989;SDS011;68390;52.130;21.218;2023-05-07T02:19:06;6.65;;;3.55;;
78989;SDS011;68390;52.130;21.218;2023-05-07T02:21:32;5.80;;;3.75;;
78989;SDS011;68390;52.130;21.218;2023-05-07T02:23:57;10.10;;;3.67;;
78989;SDS011;68390;52.130;21.218;2023-05-07T02:26:22;5.53;;;3.50;;
78989;SDS011;68390;52.130;21.218;2023-05-07T02:28:48;6.32;;;3.50;;
78989;SDS011;68390;52.130;21.218;2023-05-07T02:31:13;6.43;;;3.50;;
78989;SDS011;68390;52.130;21.218;2023-05-07T02:33:39;5.18;;;3.63;;
78989;SDS011;68390;52.130;21.218;2023-05-07T02:36:05;6.75;;;3.88;;
78989;SDS011;68390;52.130;21.218;2023-05-07T02:38:32;4.82;;;3.17;;
78989;SDS011;68390;52.130;21.218;2023-05-07T02:40:57;5.55;;;3.30;;
78989;SDS011;68390;52.130;21.218;2023-05-07T02:43:22;8.00;;;3.33;;
78989;SDS011;68390;52.130;21.218;2023-05-07T02:45:48;7.33;;;3.37;;
78989;SDS011;68390;52.130;21.218;2023-05-07T02:48:13;7.17;;;3.93;;
78989;SDS011;68390;52.130;21.218;2023-05-07T02:50:38;6.15;;;3.65;;
78989;SDS011;68390;52.130;21.218;2023-05-07T02:53:04;4.82;;;3.60;;
78989;SDS011;68390;52.130;21.218;2023-05-07T02:55:29;5.70;;;3.47;;
78989;SDS011;68390;52.130;21.218;2023-05-07T02:57:55;7.07;;;3.50;;
78989;SDS011;68390;52.130;21.218;2023-05-07T03:00:21;5.45;;;3.40;;
78989;SDS011;68390;52.130;21.218;2023-05-07T03:02:46;5.20;;;3.70;;
78989;SDS011;68390;52.130;21.218;2023-05-07T03:05:12;5.28;;;3.20;;
78989;SDS011;68390;52.130;21.218;2023-05-07T03:07:39;6.40;;;3.53;;
78989;SDS011;68390;52.130;21.218;2023-05-07T03:10:04;5.80;;;3.33;;
78989;SDS011;68390;52.130;21.218;2023-05-07T03:12:31;4.53;;;3.28;;
78989;SDS011;68390;52.130;21.218;2023-05-07T03:14:56;4.78;;;3.40;;
78989;SDS011;68390;52.130;21.218;2023-05-07T03:17:22;4.53;;;3.30;;
78989;SDS011;68390;52.130;21.218;2023-05-07T03:19:47;4.68;;;3.10;;
78989;SDS011;68390;52.130;21.218;2023-05-07T03:22:13;6.32;;;3.30;;
78989;SDS011;68390;52.130;21.218;2023-05-07T03:24:38;5.20;;;3.10;;
78989;SDS011;68390;52.130;21.218;2023-05-07T03:27:04;4.45;;;2.92;;
78989;SDS011;68390;52.130;21.218;2023-05-07T03:29:29;5.90;;;3.25;;
78989;SDS011;68390;52.130;21.218;2023-05-07T03:31:55;5.60;;;2.90;;
78989;SDS011;68390;52.130;21.218;2023-05-07T03:34:22;5.00;;;3.03;;
78989;SDS011;68390;52.130;21.218;2023-05-07T03:36:48;5.32;;;3.15;;
78989;SDS011;68390;52.130;21.218;2023-05-07T03:39:13;4.80;;;3.20;;
78989;SDS011;68390;52.130;21.218;2023-05-07T03:41:39;6.13;;;3.40;;
78989;SDS011;68390;52.130;21.218;2023-05-07T03:44:04;4.65;;;2.90;;
78989;SDS011;68390;52.130;21.218;2023-05-07T03:46:30;9.90;;;3.37;;
78989;SDS011;68390;52.130;21.218;2023-05-07T03:48:57;4.30;;;3.00;;
78989;SDS011;68390;52.130;21.218;2023-05-07T03:51:23;4.60;;;3.22;;
78989;SDS011;68390;52.130;21.218;2023-05-07T03:53:48;5.05;;;3.30;;
78989;SDS011;68390;52.130;21.218;2023-05-07T03:56:13;7.13;;;2.97;;
78989;SDS011;68390;52.130;21.218;2023-05-07T03:58:39;5.13;;;3.03;;
78989;SDS011;68390;52.130;21.218;2023-05-07T04:01:04;4.90;;;3.20;;
78989;SDS011;68390;52.130;21.218;2023-05-07T04:03:30;4.45;;;2.95;;
78989;SDS011;68390;52.130;21.218;2023-05-07T04:05:55;5.10;;;2.90;;
78989;SDS011;68390;52.130;21.218;2023-05-07T04:08:21;4.93;;;2.90;;
78989;SDS011;68390;52.130;21.218;2023-05-07T04:10:46;4.57;;;3.20;;
78989;SDS011;68390;52.130;21.218;2023-05-07T04:13:11;4.47;;;3.20;;
78989;SDS011;68390;52.130;21.218;2023-05-07T04:15:37;7.53;;;3.10;;
78989;SDS011;68390;52.130;21.218;2023-05-07T04:18:03;6.05;;;2.85;;
78989;SDS011;68390;52.130;21.218;2023-05-07T04:20:28;4.00;;;2.83;;
78989;SDS011;68390;52.130;21.218;2023-05-07T04:22:54;4.57;;;2.80;;
78989;SDS011;68390;52.130;21.218;2023-05-07T04:25:19;5.00;;;3.38;;
78989;SDS011;68390;52.130;21.218;2023-05-07T04:27:44;5.32;;;3.33;;
78989;SDS011;68390;52.130;21.218;2023-05-07T04:30:10;9.33;;;3.40;;
78989;SDS011;68390;52.130;21.218;2023-05-07T04:32:36;6.57;;;3.33;;
78989;SDS011;68390;52.130;21.218;2023-05-07T04:35:02;4.72;;;3.10;;
78989;SDS011;68390;52.130;21.218;2023-05-07T04:37:27;6.57;;;3.22;;
78989;SDS011;68390;52.130;21.218;2023-05-07T04:39:53;5.85;;;2.85;;
78989;SDS011;68390;52.130;21.218;2023-05-07T04:42:18;6.40;;;3.42;;
78989;SDS011;68390;52.130;21.218;2023-05-07T04:44:44;5.63;;;3.28;;
78989;SDS011;68390;52.130;21.218;2023-05-07T04:47:12;5.65;;;3.47;;
78989;SDS011;68390;52.130;21.218;2023-05-07T04:49:38;6.13;;;3.60;;
78989;SDS011;68390;52.130;21.218;2023-05-07T04:52:03;6.05;;;3.58;;
78989;SDS011;68390;52.130;21.218;2023-05-07T04:54:29;5.10;;;3.28;;
78989;SDS011;68390;52.130;21.218;2023-05-07T04:56:55;4.88;;;3.17;;
78989;SDS011;68390;52.130;21.218;2023-05-07T04:59:20;5.07;;;3.03;;
78989;SDS011;68390;52.130;21.218;2023-05-07T05:01:46;4.22;;;3.00;;
78989;SDS011;68390;52.130;21.218;2023-05-07T05:04:11;4.72;;;3.25;;
78989;SDS011;68390;52.130;21.218;2023-05-07T05:06:38;6.50;;;3.63;;
78989;SDS011;68390;52.130;21.218;2023-05-07T05:09:03;5.55;;;3.50;;
78989;SDS011;68390;52.130;21.218;2023-05-07T05:11:30;7.10;;;4.10;;
78989;SDS011;68390;52.130;21.218;2023-05-07T05:13:55;7.15;;;3.90;;
78989;SDS011;68390;52.130;21.218;2023-05-07T05:16:21;5.70;;;3.50;;
78989;SDS011;68390;52.130;21.218;2023-05-07T05:18:47;6.30;;;3.92;;
78989;SDS011;68390;52.130;21.218;2023-05-07T05:21:12;5.77;;;3.60;;
78989;SDS011;68390;52.130;21.218;2023-05-07T05:23:38;5.03;;;2.88;;
78989;SDS011;68390;52.130;21.218;2023-05-07T05:26:03;5.00;;;2.95;;
78989;SDS011;68390;52.130;21.218;2023-05-07T05:28:29;4.43;;;3.13;;
78989;SDS011;68390;52.130;21.218;2023-05-07T05:30:55;7.65;;;3.20;;
78989;SDS011;68390;52.130;21.218;2023-05-07T05:33:20;4.97;;;3.05;;
78989;SDS011;68390;52.130;21.218;2023-05-07T05:35:45;4.83;;;2.80;;
78989;SDS011;68390;52.130;21.218;2023-05-07T05:38:11;5.22;;;3.05;;
78989;SDS011;68390;52.130;21.218;2023-05-07T05:40:36;7.53;;;3.35;;
78989;SDS011;68390;52.130;21.218;2023-05-07T05:43:01;5.70;;;2.90;;
78989;SDS011;68390;52.130;21.218;2023-05-07T05:45:27;4.30;;;2.85;;
78989;SDS011;68390;52.130;21.218;2023-05-07T05:47:52;5.40;;;2.63;;
78989;SDS011;68390;52.130;21.218;2023-05-07T05:50:18;4.50;;;3.17;;
78989;SDS011;68390;52.130;21.218;2023-05-07T05:52:43;4.03;;;2.70;;
78989;SDS011;68390;52.130;21.218;2023-05-07T05:55:08;3.73;;;2.63;;
78989;SDS011;68390;52.130;21.218;2023-05-07T05:57:34;4.97;;;3.03;;
78989;SDS011;68390;52.130;21.218;2023-05-07T06:00:00;5.53;;;3.17;;
78989;SDS011;68390;52.130;21.218;2023-05-07T06:02:27;4.68;;;2.88;;
78989;SDS011;68390;52.130;21.218;2023-05-07T06:04:53;3.70;;;2.65;;
78989;SDS011;68390;52.130;21.218;2023-05-07T06:07:18;4.10;;;2.50;;
78989;SDS011;68390;52.130;21.218;2023-05-07T06:09:43;5.13;;;3.40;;
78989;SDS011;68390;52.130;21.218;2023-05-07T06:12:09;4.45;;;2.67;;
78989;SDS011;68390;52.130;21.218;2023-05-07T06:14:34;4.78;;;2.88;;
78989;SDS011;68390;52.130;21.218;2023-05-07T06:17:00;4.95;;;2.55;;
78989;SDS011;68390;52.130;21.218;2023-05-07T06:19:25;5.30;;;2.72;;
78989;SDS011;68390;52.130;21.218;2023-05-07T06:21:51;6.03;;;2.40;;
78989;SDS011;68390;52.130;21.218;2023-05-07T06:24:17;3.88;;;2.45;;
78989;SDS011;68390;52.130;21.218;2023-05-07T06:26:42;3.92;;;2.50;;
78989;SDS011;68390;52.130;21.218;2023-05-07T06:29:08;3.75;;;2.58;;
78989;SDS011;68390;52.130;21.218;2023-05-07T06:31:33;3.83;;;2.40;;
78989;SDS011;68390;52.130;21.218;2023-05-07T06:33:59;3.83;;;2.47;;
78989;SDS011;68390;52.130;21.218;2023-05-07T06:36:24;4.60;;;2.63;;
78989;SDS011;68390;52.130;21.218;2023-05-07T06:38:51;3.85;;;2.53;;
78989;SDS011;68390;52.130;21.218;2023-05-07T06:41:16;4.85;;;2.58;;
78989;SDS011;68390;52.130;21.218;2023-05-07T06:43:42;5.13;;;2.53;;
78989;SDS011;68390;52.130;21.218;2023-05-07T06:46:07;3.80;;;2.40;;
78989;SDS011;68390;52.130;21.218;2023-05-07T06:48:32;4.87;;;2.50;;
78989;SDS011;68390;52.130;21.218;2023-05-07T06:50:58;3.78;;;2.58;;
78989;SDS011;68390;52.130;21.218;2023-05-07T06:53:24;4.78;;;2.60;;
78989;SDS011;68390;52.130;21.218;2023-05-07T06:55:49;4.45;;;2.33;;
78989;SDS011;68390;52.130;21.218;2023-05-07T06:58:15;3.45;;;2.60;;
78989;SDS011;68390;52.130;21.218;2023-05-07T07:00:40;3.88;;;2.40;;
78989;SDS011;68390;52.130;21.218;2023-05-07T07:03:06;5.57;;;2.80;;
78989;SDS011;68390;52.130;21.218;2023-05-07T07:05:31;5.03;;;2.80;;
78989;SDS011;68390;52.130;21.218;2023-05-07T07:07:57;3.65;;;2.65;;
78989;SDS011;68390;52.130;21.218;2023-05-07T07:10:22;4.38;;;2.72;;
78989;SDS011;68390;52.130;21.218;2023-05-07T07:12:48;5.63;;;2.40;;
78989;SDS011;68390;52.130;21.218;2023-05-07T07:15:14;5.07;;;2.80;;
78989;SDS011;68390;52.130;21.218;2023-05-07T07:17:40;4.35;;;2.67;;
78989;SDS011;68390;52.130;21.218;2023-05-07T07:20:06;6.00;;;2.70;;
78989;SDS011;68390;52.130;21.218;2023-05-07T07:22:32;4.80;;;2.70;;
78989;SDS011;68390;52.130;21.218;2023-05-07T07:24:57;4.13;;;2.53;;
78989;SDS011;68390;52.130;21.218;2023-05-07T07:27:23;6.10;;;2.40;;
78989;SDS011;68390;52.130;21.218;2023-05-07T07:29:48;3.60;;;2.03;;
78989;SDS011;68390;52.130;21.218;2023-05-07T07:32:14;3.83;;;2.47;;
78989;SDS011;68390;52.130;21.218;2023-05-07T07:34:39;5.10;;;2.50;;
78989;SDS011;68390;52.130;21.218;2023-05-07T07:37:05;5.13;;;2.42;;
78989;SDS011;68390;52.130;21.218;2023-05-07T07:39:34;5.28;;;2.80;;
78989;SDS011;68390;52.130;21.218;2023-05-07T07:42:00;6.85;;;2.75;;
78989;SDS011;68390;52.130;21.218;2023-05-07T07:44:25;3.88;;;2.38;;
78989;SDS011;68390;52.130;21.218;2023-05-07T07:46:52;4.57;;;2.60;;
78989;SDS011;68390;52.130;21.218;2023-05-07T07:49:18;4.07;;;2.30;;
78989;SDS011;68390;52.130;21.218;2023-05-07T07:51:43;3.88;;;2.40;;
78989;SDS011;68390;52.130;21.218;2023-05-07T07:54:09;5.15;;;2.83;;
78989;SDS011;68390;52.130;21.218;2023-05-07T07:56:34;4.10;;;2.30;;
78989;SDS011;68390;52.130;21.218;2023-05-07T07:59:00;6.90;;;2.83;;
78989;SDS011;68390;52.130;21.218;2023-05-07T08:01:26;4.13;;;2.75;;
78989;SDS011;68390;52.130;21.218;2023-05-07T08:03:52;4.47;;;2.70;;
78989;SDS011;68390;52.130;21.218;2023-05-07T08:06:17;4.05;;;2.67;;
78989;SDS011;68390;52.130;21.218;2023-05-07T08:08:43;4.68;;;2.47;;
78989;SDS011;68390;52.130;21.218;2023-05-07T08:11:08;5.47;;;2.70;;
78989;SDS011;68390;52.130;21.218;2023-05-07T08:13:34;8.50;;;2.90;;
78989;SDS011;68390;52.130;21.218;2023-05-07T08:16:00;3.53;;;2.60;;
78989;SDS011;68390;52.130;21.218;2023-05-07T08:18:25;3.83;;;2.45;;
78989;SDS011;68390;52.130;21.218;2023-05-07T08:20:53;4.65;;;2.78;;
78989;SDS011;68390;52.130;21.218;2023-05-07T08:23:18;4.47;;;2.80;;
78989;SDS011;68390;52.130;21.218;2023-05-07T08:25:44;5.38;;;3.08;;
78989;SDS011;68390;52.130;21.218;2023-05-07T08:28:09;6.00;;;2.45;;
78989;SDS011;68390;52.130;21.218;2023-05-07T08:30:35;4.13;;;2.13;;
78989;SDS011;68390;52.130;21.218;2023-05-07T08:33:00;4.03;;;2.42;;
78989;SDS011;68390;52.130;21.218;2023-05-07T08:35:26;5.80;;;2.58;;
78989;SDS011;68390;52.130;21.218;2023-05-07T08:37:52;3.80;;;2.55;;
78989;SDS011;68390;52.130;21.218;2023-05-07T08:40:17;4.30;;;2.90;;
78989;SDS011;68390;52.130;21.218;2023-05-07T08:42:43;4.60;;;2.80;;
78989;SDS011;68390;52.130;21.218;2023-05-07T08:45:10;3.28;;;2.40;;
78989;SDS011;68390;52.130;21.218;2023-05-07T08:47:42;4.53;;;3.20;;
78989;SDS011;68390;52.130;21.218;2023-05-07T08:50:12;3.80;;;2.45;;
78989;SDS011;68390;52.130;21.218;2023-05-07T08:52:39;5.28;;;2.70;;
78989;SDS011;68390;52.130;21.218;2023-05-07T08:55:07;3.97;;;2.60;;
78989;SDS011;68390;52.130;21.218;2023-05-07T08:57:33;4.95;;;2.53;;
78989;SDS011;68390;52.130;21.218;2023-05-07T08:59:59;5.38;;;2.95;;
78989;SDS011;68390;52.130;21.218;2023-05-07T09:02:24;8.13;;;3.47;;
78989;SDS011;68390;52.130;21.218;2023-05-07T09:04:50;4.93;;;3.05;;
78989;SDS011;68390;52.130;21.218;2023-05-07T09:07:16;6.15;;;3.38;;
78989;SDS011;68390;52.130;21.218;2023-05-07T09:09:41;5.00;;;3.30;;
78989;SDS011;68390;52.130;21.218;2023-05-07T09:12:09;6.40;;;2.95;;
78989;SDS011;68390;52.130;21.218;2023-05-07T09:14:34;4.40;;;2.30;;
78989;SDS011;68390;52.130;21.218;2023-05-07T09:17:00;5.43;;;2.63;;
78989;SDS011;68390;52.130;21.218;2023-05-07T09:19:26;5.70;;;2.10;;
78989;SDS011;68390;52.130;21.218;2023-05-07T09:22:02;4.35;;;2.35;;
78989;SDS011;68390;52.130;21.218;2023-05-07T09:24:29;4.95;;;2.53;;
78989;SDS011;68390;52.130;21.218;2023-05-07T09:26:59;4.10;;;2.53;;
78989;SDS011;68390;52.130;21.218;2023-05-07T09:29:26;5.45;;;2.70;;
78989;SDS011;68390;52.130;21.218;2023-05-07T09:31:53;4.97;;;2.20;;
78989;SDS011;68390;52.130;21.218;2023-05-07T09:34:19;4.88;;;2.30;;
78989;SDS011;68390;52.130;21.218;2023-05-07T09:36:45;3.53;;;2.15;;
78989;SDS011;68390;52.130;21.218;2023-05-07T09:39:10;2.88;;;2.22;;
78989;SDS011;68390;52.130;21.218;2023-05-07T09:41:46;6.50;;;2.70;;
78989;SDS011;68390;52.130;21.218;2023-05-07T09:44:12;3.83;;;2.33;;
78989;SDS011;68390;52.130;21.218;2023-05-07T09:46:39;4.00;;;2.42;;
78989;SDS011;68390;52.130;21.218;2023-05-07T09:49:11;5.40;;;2.38;;
78989;SDS011;68390;52.130;21.218;2023-05-07T09:51:43;6.70;;;2.38;;
78989;SDS011;68390;52.130;21.218;2023-05-07T09:54:13;5.55;;;2.63;;
78989;SDS011;68390;52.130;21.218;2023-05-07T09:56:39;3.15;;;2.40;;
78989;SDS011;68390;52.130;21.218;2023-05-07T09:59:06;7.78;;;2.70;;
78989;SDS011;68390;52.130;21.218;2023-05-07T10:01:36;3.40;;;2.50;;
78989;SDS011;68390;52.130;21.218;2023-05-07T10:04:02;7.05;;;2.72;;
78989;SDS011;68390;52.130;21.218;2023-05-07T10:06:29;4.95;;;3.63;;
78989;SDS011;68390;52.130;21.218;2023-05-07T10:08:55;4.38;;;2.90;;
78989;SDS011;68390;52.130;21.218;2023-05-07T10:11:21;5.38;;;3.03;;
78989;SDS011;68390;52.130;21.218;2023-05-07T10:13:48;4.50;;;2.80;;
78989;SDS011;68390;52.130;21.218;2023-05-07T10:16:14;4.75;;;2.67;;
78989;SDS011;68390;52.130;21.218;2023-05-07T10:18:43;4.38;;;2.60;;
78989;SDS011;68390;52.130;21.218;2023-05-07T10:21:13;5.68;;;2.40;;
78989;SDS011;68390;52.130;21.218;2023-05-07T10:23:45;4.78;;;2.65;;
78989;SDS011;68390;52.130;21.218;2023-05-07T10:26:14;5.47;;;2.63;;
78989;SDS011;68390;52.130;21.218;2023-05-07T10:28:43;6.18;;;2.80;;
78989;SDS011;68390;52.130;21.218;2023-05-07T10:33:47;4.72;;;2.60;;
78989;SDS011;68390;52.130;21.218;2023-05-07T10:36:16;5.50;;;3.65;;
78989;SDS011;68390;52.130;21.218;2023-05-07T10:38:43;7.07;;;3.78;;
78989;SDS011;68390;52.130;21.218;2023-05-07T10:41:09;6.20;;;3.85;;
78989;SDS011;68390;52.130;21.218;2023-05-07T10:43:42;7.47;;;3.63;;
78989;SDS011;68390;52.130;21.218;2023-05-07T10:46:15;4.55;;;2.67;;
78989;SDS011;68390;52.130;21.218;2023-05-07T10:51:28;5.30;;;2.92;;
78989;SDS011;68390;52.130;21.218;2023-05-07T10:54:40;5.45;;;2.90;;
78989;SDS011;68390;52.130;21.218;2023-05-07T10:56:44;4.53;;;2.85;;
78989;SDS011;68390;52.130;21.218;2023-05-07T11:04:17;4.27;;;2.90;;
78989;SDS011;68390;52.130;21.218;2023-05-07T11:15:05;4.90;;;3.20;;
78989;SDS011;68390;52.130;21.218;2023-05-07T11:17:32;4.60;;;2.70;;
78989;SDS011;68390;52.130;21.218;2023-05-07T11:19:59;3.97;;;2.92;;
78989;SDS011;68390;52.130;21.218;2023-05-07T11:25:02;6.07;;;3.40;;
78989;SDS011;68390;52.130;21.218;2023-05-07T11:27:28;5.88;;;3.00;;
78989;SDS011;68390;52.130;21.218;2023-05-07T11:29:55;3.60;;;2.50;;
78989;SDS011;68390;52.130;21.218;2023-05-07T11:32:24;5.22;;;2.78;;
78989;SDS011;68390;52.130;21.218;2023-05-07T11:34:51;5.05;;;2.42;;
78989;SDS011;68390;52.130;21.218;2023-05-07T11:37:17;5.15;;;2.47;;
78989;SDS011;68390;52.130;21.218;2023-05-07T11:39:43;5.50;;;2.17;;
78989;SDS011;68390;52.130;21.218;2023-05-07T11:44:57;3.58;;;2.28;;
78989;SDS011;68390;52.130;21.218;2023-05-07T11:47:23;7.28;;;2.70;;
78989;SDS011;68390;52.130;21.218;2023-05-07T11:49:49;5.72;;;2.63;;
78989;SDS011;68390;52.130;21.218;2023-05-07T11:52:19;5.80;;;2.80;;
78989;SDS011;68390;52.130;21.218;2023-05-07T11:54:50;5.93;;;2.38;;
78989;SDS011;68390;52.130;21.218;2023-05-07T11:57:16;4.50;;;2.47;;
78989;SDS011;68390;52.130;21.218;2023-05-07T11:59:42;2.92;;;2.28;;
78989;SDS011;68390;52.130;21.218;2023-05-07T12:02:14;5.00;;;2.58;;
78989;SDS011;68390;52.130;21.218;2023-05-07T12:04:40;4.75;;;2.30;;
78989;SDS011;68390;52.130;21.218;2023-05-07T12:07:11;3.60;;;2.47;;
78989;SDS011;68390;52.130;21.218;2023-05-07T12:09:38;5.07;;;2.25;;
78989;SDS011;68390;52.130;21.218;2023-05-07T12:12:04;3.35;;;2.40;;
78989;SDS011;68390;52.130;21.218;2023-05-07T12:14:29;4.18;;;2.90;;
78989;SDS011;68390;52.130;21.218;2023-05-07T12:16:55;4.57;;;2.70;;
78989;SDS011;68390;52.130;21.218;2023-05-07T12:19:21;3.10;;;2.20;;
78989;SDS011;68390;52.130;21.218;2023-05-07T12:21:47;4.60;;;2.80;;
78989;SDS011;68390;52.130;21.218;2023-05-07T12:24:14;4.80;;;2.97;;
78989;SDS011;68390;52.130;21.218;2023-05-07T12:26:40;4.25;;;2.40;;
78989;SDS011;68390;52.130;21.218;2023-05-07T12:29:06;5.43;;;2.20;;
78989;SDS011;68390;52.130;21.218;2023-05-07T12:31:31;5.60;;;2.60;;
78989;SDS011;68390;52.130;21.218;2023-05-07T12:33:57;4.18;;;2.53;;
78989;SDS011;68390;52.130;21.218;2023-05-07T12:36:22;4.35;;;2.30;;
78989;SDS011;68390;52.130;21.218;2023-05-07T12:38:49;3.83;;;2.17;;
78989;SDS011;68390;52.130;21.218;2023-05-07T12:41:14;4.55;;;2.22;;
78989;SDS011;68390;52.130;21.218;2023-05-07T12:43:42;3.33;;;2.40;;
78989;SDS011;68390;52.130;21.218;2023-05-07T12:46:09;5.43;;;2.63;;
78989;SDS011;68390;52.130;21.218;2023-05-07T12:48:36;5.13;;;2.50;;
78989;SDS011;68390;52.130;21.218;2023-05-07T12:51:02;5.13;;;2.92;;
78989;SDS011;68390;52.130;21.218;2023-05-07T12:53:28;4.43;;;2.63;;
78989;SDS011;68390;52.130;21.218;2023-05-07T12:55:56;3.22;;;2.33;;
78989;SDS011;68390;52.130;21.218;2023-05-07T12:58:25;3.38;;;2.10;;
78989;SDS011;68390;52.130;21.218;2023-05-07T13:00:53;3.28;;;2.20;;
78989;SDS011;68390;52.130;21.218;2023-05-07T13:03:26;3.50;;;2.30;;
78989;SDS011;68390;52.130;21.218;2023-05-07T13:06:00;3.72;;;2.30;;
78989;SDS011;68390;52.130;21.218;2023-05-07T13:08:33;4.38;;;2.25;;
78989;SDS011;68390;52.130;21.218;2023-05-07T13:11:06;4.05;;;2.70;;
78989;SDS011;68390;52.130;21.218;2023-05-07T13:13:34;5.93;;;2.42;;
78989;SDS011;68390;52.130;21.218;2023-05-07T13:16:00;4.28;;;2.90;;
78989;SDS011;68390;52.130;21.218;2023-05-07T13:18:27;4.13;;;2.25;;
78989;SDS011;68390;52.130;21.218;2023-05-07T13:20:54;4.95;;;2.50;;
78989;SDS011;68390;52.130;21.218;2023-05-07T13:23:20;3.90;;;2.22;;
78989;SDS011;68390;52.130;21.218;2023-05-07T13:25:45;3.33;;;2.33;;
78989;SDS011;68390;52.130;21.218;2023-05-07T13:28:11;4.78;;;2.85;;
78989;SDS011;68390;52.130;21.218;2023-05-07T13:30:37;4.47;;;2.40;;
78989;SDS011;68390;52.130;21.218;2023-05-07T13:33:02;4.47;;;2.72;;
78989;SDS011;68390;52.130;21.218;2023-05-07T13:35:27;4.13;;;2.60;;
78989;SDS011;68390;52.130;21.218;2023-05-07T13:37:53;3.30;;;2.28;;
78989;SDS011;68390;52.130;21.218;2023-05-07T13:40:19;5.43;;;2.47;;
78989;SDS011;68390;52.130;21.218;2023-05-07T13:42:45;3.95;;;2.40;;
78989;SDS011;68390;52.130;21.218;2023-05-07T13:45:11;3.22;;;2.40;;
78989;SDS011;68390;52.130;21.218;2023-05-07T13:47:39;4.78;;;2.40;;
78989;SDS011;68390;52.130;21.218;2023-05-07T13:50:08;5.28;;;2.50;;
78989;SDS011;68390;52.130;21.218;2023-05-07T13:52:34;3.05;;;2.20;;
78989;SDS011;68390;52.130;21.218;2023-05-07T13:54:59;5.85;;;3.13;;
78989;SDS011;68390;52.130;21.218;2023-05-07T13:57:25;5.40;;;3.33;;
78989;SDS011;68390;52.130;21.218;2023-05-07T13:59:50;4.85;;;2.70;;
78989;SDS011;68390;52.130;21.218;2023-05-07T14:02:16;4.63;;;2.40;;
78989;SDS011;68390;52.130;21.218;2023-05-07T14:04:41;4.20;;;2.30;;
78989;SDS011;68390;52.130;21.218;2023-05-07T14:07:07;3.38;;;1.83;;
78989;SDS011;68390;52.130;21.218;2023-05-07T14:09:32;4.00;;;2.00;;
78989;SDS011;68390;52.130;21.218;2023-05-07T14:11:58;3.20;;;2.15;;
78989;SDS011;68390;52.130;21.218;2023-05-07T14:14:23;3.75;;;2.40;;
78989;SDS011;68390;52.130;21.218;2023-05-07T14:16:49;4.50;;;2.28;;
78989;SDS011;68390;52.130;21.218;2023-05-07T14:19:14;4.90;;;2.20;;
78989;SDS011;68390;52.130;21.218;2023-05-07T14:21:40;4.35;;;2.30;;
78989;SDS011;68390;52.130;21.218;2023-05-07T14:24:06;4.05;;;2.15;;
78989;SDS011;68390;52.130;21.218;2023-05-07T14:26:32;4.40;;;1.90;;
78989;SDS011;68390;52.130;21.218;2023-05-07T14:28:58;3.55;;;1.90;;
78989;SDS011;68390;52.130;21.218;2023-05-07T14:31:24;3.65;;;2.10;;
78989;SDS011;68390;52.130;21.218;2023-05-07T14:33:50;4.50;;;2.28;;
78989;SDS011;68390;52.130;21.218;2023-05-07T14:36:16;4.22;;;2.75;;
78989;SDS011;68390;52.130;21.218;2023-05-07T14:38:42;3.95;;;2.50;;
78989;SDS011;68390;52.130;21.218;2023-05-07T14:41:08;3.72;;;2.47;;
78989;SDS011;68390;52.130;21.218;2023-05-07T14:43:33;4.10;;;2.33;;
78989;SDS011;68390;52.130;21.218;2023-05-07T14:45:59;5.78;;;2.80;;
78989;SDS011;68390;52.130;21.218;2023-05-07T14:48:24;4.47;;;2.60;;
78989;SDS011;68390;52.130;21.218;2023-05-07T14:50:50;6.53;;;2.90;;
78989;SDS011;68390;52.130;21.218;2023-05-07T14:53:15;3.78;;;2.22;;
78989;SDS011;68390;52.130;21.218;2023-05-07T14:55:41;4.32;;;2.00;;